This is the latest recevied weather packets stored in our database for station/object BV3BA-13. If no packets are shown the sender has not sent any weather packets the latest 1 day(s).
| Time | Temp. | Humidity | Pressure | Rain* | Wind** | Luminosity | Snow |
|---|---|---|---|---|---|---|---|
| 1778045824 | 26.11° C | 74% | 1009.5 hPa | 0 mm | - | - | - |
| 1778044624 | 27.22° C | 73% | 1009.6 hPa | 0 mm | - | - | - |
| 1778044024 | 26.67° C | 74% | 1009.7 hPa | 0 mm | - | - | - |
| 1778042824 | 25.56° C | 77% | 1009.9 hPa | 0 mm | - | - | - |
| 1778041023 | 25° C | 78% | 1010.2 hPa | 0 mm | - | - | - |
| 1778039824 | 26.11° C | 77% | 1010.3 hPa | 0 mm | - | - | - |
| 1778039223 | 25° C | 81% | 1010.5 hPa | 0 mm | - | - | - |
| 1778038623 | 24.44° C | 82% | 1010.5 hPa | 0 mm | - | - | - |
| 1778038024 | 24.44° C | 83% | 1010.6 hPa | 0 mm | - | - | - |
| 1778037425 | 24.44° C | 85% | 1010.7 hPa | 0 mm | - | - | - |
| 1778036824 | 24.44° C | 85% | 1010.8 hPa | 0 mm | - | - | - |
| 1778036223 | 24.44° C | 82% | 1010.8 hPa | 0 mm | - | - | - |
| 1778035623 | 24.44° C | 85% | 1010.8 hPa | 0 mm | - | - | - |
| 1778034423 | 23.89° C | 85% | 1010.9 hPa | 0 mm | - | - | - |
| 1778033224 | 23.89° C | 86% | 1011.1 hPa | 0 mm | - | - | - |
| 1778032623 | 23.33° C | 87% | 1011.1 hPa | 0 mm | - | - | - |
| 1778030224 | 23.33° C | 89% | 1011.1 hPa | 0 mm | - | - | - |
| 1778029624 | 22.78° C | 91% | 1011.1 hPa | 0 mm | - | - | - |
| 1778028424 | 22.78° C | 91% | 1011 hPa | 0 mm | - | - | - |
| 1778027823 | 22.78° C | 91% | 1011 hPa | 0 mm | - | - | - |
| 1778027223 | 22.78° C | 93% | 1011 hPa | 0 mm | - | - | - |
| 1778026624 | 22.22° C | 95% | 1011 hPa | 0 mm | - | - | - |
| 1778025425 | 21.67° C | 96% | 1011.1 hPa | 0 mm | - | - | - |
| 1778020624 | 21.11° C | 99% | 1010.7 hPa | 0 mm | - | - | - |
| 1778016424 | 20.56° C | 99% | 1010 hPa | 1.02 mm | - | - | - |
* Rain latest hour (hover to see other rain measurements)
** Current wind speed in m/s (hover to see current wind gust speed)